Aktualne dane pomiarowe

Uwaga, wersja testowa! Automatyczne pobieranie danych za pomocą narzędzi lub skryptów to umożliwiających jest zabronione.

Dane meteo z obszaru Polski uzyskane na podstawie depesz SYNOP pobieranych co godzinę z NWS. Najedź myszką na symbol przedstawiony w tabeli, aby uzyskać informacje co do jego znaczenia. Prosimy pamiętać, że to testowa wersja strony, która jeszcze nie jest ukończona. Stworzono również jest krótki FAQ dotyczący korzystania z tej podstrony Anomalie temperatury w chwili obecnej odniesione są do okresu referencyjnego 1951-2016. Okres ten będzie później zmieniony na 1981-2010. Kliknij ikonę aby pobrać plik CSV. Kliknij ikonę aby wygenerować mapę synoptyczną dla danego terminu.

Wybierz Datę:    

        

Rzeszów-Jasionka (12580)

Dane terminowe dla wybranej stacji. Kliknij datę, aby otrzymać dane z tego terminu dla wszystkich stacji.

TemperaturaZachmurzenieWiatrCiśnienieOpadyPogoda
 Data t td wb tx tn tg rh  Nt Nl Cl Cm Ch ws wd g1 g2 wx mslp ppp ch 24h 12h t ww ww w1 w2  
2019-06-19 23:00:00 18.5 18.3 18.3--- 9915.0wxwxwxwx1wx---1012.2 986.8 -0.5---------
2019-06-19 22:00:00 19.2 19.0 19.1--- 9920.0wxwxwxwx2wx---1012.2 986.9 -0.4---------
2019-06-19 21:00:00 19.8 19.3 19.4--- 9730.0wx-wx3wx--31012.4 987.1 -0.3---------
2019-06-19 20:00:00 20.9 19.7 20.0--- 9330.0wx-wxwx2wx--21012.5 987.3 -0.2---------
2019-06-19 19:00:00 21.6 19.7 20.2--- 8930.0wx-wxwx2wx--21012.4 987.3 -0.2---------
2019-06-19 18:00:00 23.2 19.1 20.3 26.7 21.5- 7830.0wx-wxwx1wx--11012.4 987.4 0.0--12wx-w1--
2019-06-19 17:00:00 23.6 19.7 20.8--- 7930.0wxwxwxwxwx2wx--21012.5 987.5 -0.8---------
2019-06-19 16:00:00 23.9 19.6 20.9--- 7730.0wxwxwxwxwx4wx--41012.5 987.5 -0.8---------
2019-06-19 15:00:00 24.1 18.3 20.1--- 7030.0wxwxwxwxwx3wx---1012.3 987.4 -0.9---wx-w1--
2019-06-19 14:00:00 23.4 19.1 20.4--- 7730.0wxwxwxwx3wx--31013.3 988.3 -1.0---wx---
2019-06-19 13:00:00 23.7 17.4 19.4--- 6830.0wxwxwxwx4wx--41013.3 988.3 -1.1---------
2019-06-19 12:00:00 24.9 19.5 21.1--- 7230.0wxwxwxwx4wx-1141013.2 988.3 -1.1--6wx-w1w2--
2019-06-19 11:00:00 23.4 17.6 19.4--- 7030.0wxwxwxwx6wx-1161014.3 989.3 -0.4---wx-w1w2--
2019-06-19 10:00:00 25.6 18.8 20.9--- 6630.0wxwxwxwx2wx--21014.3 989.4 -0.3---wx-w1w2--
2019-06-19 09:00:00 25.1 18.8 20.8--- 6830.0wxwxwxwx2wx--21014.3 989.4 -0.6---wx---
2019-06-19 08:00:00 24.6 18.5 20.4--- 6920.0wxwxwxwx2wx---1014.7 989.7 -0.4---------
2019-06-19 07:00:00 24.0 19.5 20.8--- 7620.0wx-wx2wx--21014.7 989.7 -0.5---------
2019-06-19 06:00:00 21.5 19.4 20.0 21.8 17.2 14 8820.0wx-wxwx3wx--31015.2 990.0 -0.1- 0.012------
2019-06-19 05:00:00 19.5 18.5 18.8--- 9415.0wx-wxwx3wx--31015.5 990.1 -0.2---------
2019-06-19 04:00:00 18.2 17.7 17.8--- 9720.0wx-wxwx4wx--41015.7 990.2 -0.3---------
2019-06-19 03:00:00 17.5 17.2 17.3--- 9820.0wx-wxwx3wx--31015.7 990.1 -0.9---------
2019-06-19 02:00:00 17.5 17.2 17.3--- 9820.0wx-wxwx3wx--31015.9 990.3 -1.0---------
2019-06-19 01:00:00 18.0 17.4 17.6--- 9630.0wx-wxwx2wx--21016.0 990.5 -1.0---------
2019-06-19 00:00:00 18.5 17.5 17.8--- 9430.0wx-wxwx2wx--21016.5 991.0 -0.8- 0.06------
2019-06-18 23:00:00 18.5 17.5 17.8--- 9430.0wx-wxwx2wx--21016.8 991.3 -0.6---------
2019-06-18 22:00:00 18.7 17.7 18.0--- 9430.0wx-wxwx2wx---1017.0 991.5 -0.4---------
2019-06-18 21:00:00 18.4 17.4 17.7--- 9430.0wxwxwxwx2wx--21017.3 991.8 -0.2---------
2019-06-18 20:00:00 19.0 17.7 18.0--- 9230.0wx-wx1wx--11017.4 991.9 -0.1---------
2019-06-18 19:00:00 21.1 17.3 18.5--- 7930.0wxwxwxwx2wx--21017.2 991.9 -0.2---------
2019-06-18 18:00:00 21.8 17.6 18.9 24.4 18.2- 7730.0wxwxwx2wx--21017.3 992.0 -0.4- 0.012------
2019-06-18 17:00:00 23.5 17.5 19.4--- 6930.0wxwxwx2wx---1017.1 992.0 -0.9---------
2019-06-18 16:00:00 23.8 17.1 19.3--- 6630.0wxwxwx4wx--41017.2 992.1 -1.3---------
2019-06-18 15:00:00 23.4 16.4 18.7--- 6530.0wxwxwx3wx---1017.5 992.4 -1.5---------
2019-06-18 14:00:00 23.9 15.7 18.5--- 6030.0wxwxwxwx4wx--41018.0 992.9 -1.3---------
2019-06-18 13:00:00 23.9 15.9 18.7--- 6130.0wxwxwx4wx--41018.5 993.4 -1.1---------
2019-06-18 12:00:00 23.8 15.3 18.3--- 5930.0wxwxwx4wx--41019.0 993.9 -0.9- 0.06------
2019-06-18 11:00:00 23.1 16.2 18.5--- 6530.0wxwxwx3wx--31019.4 994.2 -0.9---------
2019-06-18 10:00:00 22.4 16.4 18.4--- 6930.0wxwxwx4wx--41019.8 994.5 -0.6---------
2019-06-18 09:00:00 21.3 15.8 17.6--- 7130.0wxwxwx4wx--41020.2 994.8 -0.2---------
2019-06-18 08:00:00 20.4 16.2 17.5--- 7730.0wxwxwx4wx--41020.6 995.1 0.3---------
2019-06-18 07:00:00 19.0 17.0 17.6--- 8830.0wxwxwx3wx---1020.7 995.1 0.6---------
2019-06-18 06:00:00 18.2 16.4 16.9 18.6 15.9 13 8930.0wxwxwx2wx---1020.6 995.0 0.3 0.1 0.124------
2019-06-18 05:00:00 17.6 15.9 16.4--- 9030.0wxwxwx1wx--11020.5 994.8 0.1---------
2019-06-18 04:00:00 16.8 16.3 16.4--- 9730.0wxwxwx1wx--11020.3 994.5 -0.2---------
2019-06-18 03:00:00 16.0 15.8 15.8--- 9920.0wxwxwx1wx--11020.5 994.7 -0.3---------
2019-06-18 02:00:00 16.1 15.8 15.9--- 9820.0wxwxwx1wx---1020.5 994.7 -0.3---------
2019-06-18 01:00:00 16.2 15.7 15.8--- 9730.0wxwxwxwx1wx---1020.5 994.7 -0.5---------
2019-06-18 00:00:00 16.3 15.5 15.7--- 9530.0wx-wx1wx--11020.8 995.0 -0.1- 0.06------
2.0 ms

 

Print Friendly, PDF & Email